sensor_id;sensor_type;location;lat;lon;timestamp;P1;durP1;ratioP1;P2;durP2;ratioP2
76155;SDS011;64906;51.290;7.348;2023-08-07T00:02:01;58.10;;;31.25;;
76155;SDS011;64906;51.290;7.348;2023-08-07T00:04:26;55.90;;;31.63;;
76155;SDS011;64906;51.290;7.348;2023-08-07T00:06:52;60.93;;;30.57;;
76155;SDS011;64906;51.290;7.348;2023-08-07T00:09:17;57.37;;;30.97;;
76155;SDS011;64906;51.290;7.348;2023-08-07T00:11:42;52.87;;;29.70;;
76155;SDS011;64906;51.290;7.348;2023-08-07T00:14:08;58.95;;;30.08;;
76155;SDS011;64906;51.290;7.348;2023-08-07T00:16:33;56.15;;;29.65;;
76155;SDS011;64906;51.290;7.348;2023-08-07T00:18:58;56.27;;;30.00;;
76155;SDS011;64906;51.290;7.348;2023-08-07T00:21:24;50.03;;;27.33;;
76155;SDS011;64906;51.290;7.348;2023-08-07T00:23:49;49.63;;;27.70;;
76155;SDS011;64906;51.290;7.348;2023-08-07T00:26:15;55.13;;;28.17;;
76155;SDS011;64906;51.290;7.348;2023-08-07T00:28:40;50.50;;;27.48;;
76155;SDS011;64906;51.290;7.348;2023-08-07T00:31:06;49.83;;;26.08;;
76155;SDS011;64906;51.290;7.348;2023-08-07T00:33:31;49.37;;;26.30;;
76155;SDS011;64906;51.290;7.348;2023-08-07T00:35:56;49.33;;;26.23;;
76155;SDS011;64906;51.290;7.348;2023-08-07T00:38:22;51.43;;;26.47;;
76155;SDS011;64906;51.290;7.348;2023-08-07T00:40:48;47.67;;;26.45;;
76155;SDS011;64906;51.290;7.348;2023-08-07T00:43:13;45.43;;;25.10;;
76155;SDS011;64906;51.290;7.348;2023-08-07T00:45:42;48.57;;;25.77;;
76155;SDS011;64906;51.290;7.348;2023-08-07T00:48:10;45.10;;;24.27;;
76155;SDS011;64906;51.290;7.348;2023-08-07T00:50:36;43.70;;;24.52;;
76155;SDS011;64906;51.290;7.348;2023-08-07T00:53:02;44.08;;;23.73;;
76155;SDS011;64906;51.290;7.348;2023-08-07T00:55:28;43.05;;;23.83;;
76155;SDS011;64906;51.290;7.348;2023-08-07T00:57:54;39.70;;;22.73;;
76155;SDS011;64906;51.290;7.348;2023-08-07T01:00:19;42.37;;;23.37;;
76155;SDS011;64906;51.290;7.348;2023-08-07T01:02:45;41.58;;;23.30;;
76155;SDS011;64906;51.290;7.348;2023-08-07T01:05:14;39.63;;;21.58;;
76155;SDS011;64906;51.290;7.348;2023-08-07T01:07:39;41.67;;;23.02;;
76155;SDS011;64906;51.290;7.348;2023-08-07T01:10:05;42.40;;;22.27;;
76155;SDS011;64906;51.290;7.348;2023-08-07T01:12:33;39.20;;;21.63;;
76155;SDS011;64906;51.290;7.348;2023-08-07T01:17:39;39.72;;;21.13;;
76155;SDS011;64906;51.290;7.348;2023-08-07T01:20:08;36.00;;;20.73;;
76155;SDS011;64906;51.290;7.348;2023-08-07T01:22:34;39.17;;;20.88;;
76155;SDS011;64906;51.290;7.348;2023-08-07T01:24:59;39.07;;;20.97;;
76155;SDS011;64906;51.290;7.348;2023-08-07T01:27:37;38.97;;;21.33;;
76155;SDS011;64906;51.290;7.348;2023-08-07T01:33:09;39.00;;;20.55;;
76155;SDS011;64906;51.290;7.348;2023-08-07T01:35:43;36.55;;;19.17;;
76155;SDS011;64906;51.290;7.348;2023-08-07T01:38:11;37.38;;;19.75;;
76155;SDS011;64906;51.290;7.348;2023-08-07T01:40:38;34.78;;;19.25;;
76155;SDS011;64906;51.290;7.348;2023-08-07T01:43:05;35.55;;;20.20;;
76155;SDS011;64906;51.290;7.348;2023-08-07T01:45:30;33.28;;;18.65;;
76155;SDS011;64906;51.290;7.348;2023-08-07T01:47:56;34.95;;;18.55;;
76155;SDS011;64906;51.290;7.348;2023-08-07T01:50:21;32.37;;;17.80;;
76155;SDS011;64906;51.290;7.348;2023-08-07T01:52:48;33.67;;;18.27;;
76155;SDS011;64906;51.290;7.348;2023-08-07T01:55:17;31.80;;;17.30;;
76155;SDS011;64906;51.290;7.348;2023-08-07T01:57:43;32.55;;;17.90;;
76155;SDS011;64906;51.290;7.348;2023-08-07T02:00:08;33.33;;;17.63;;
76155;SDS011;64906;51.290;7.348;2023-08-07T02:02:35;31.63;;;17.02;;
76155;SDS011;64906;51.290;7.348;2023-08-07T02:05:00;32.42;;;17.27;;
76155;SDS011;64906;51.290;7.348;2023-08-07T02:07:26;29.50;;;16.93;;
76155;SDS011;64906;51.290;7.348;2023-08-07T02:09:51;29.10;;;16.15;;
76155;SDS011;64906;51.290;7.348;2023-08-07T02:12:16;28.77;;;16.10;;
76155;SDS011;64906;51.290;7.348;2023-08-07T02:14:42;28.58;;;15.93;;
76155;SDS011;64906;51.290;7.348;2023-08-07T02:17:07;29.70;;;16.35;;
76155;SDS011;64906;51.290;7.348;2023-08-07T02:19:32;27.90;;;15.43;;
76155;SDS011;64906;51.290;7.348;2023-08-07T02:21:58;28.92;;;15.90;;
76155;SDS011;64906;51.290;7.348;2023-08-07T02:24:23;28.40;;;15.67;;
76155;SDS011;64906;51.290;7.348;2023-08-07T02:26:48;28.63;;;15.67;;
76155;SDS011;64906;51.290;7.348;2023-08-07T02:29:14;25.30;;;14.60;;
76155;SDS011;64906;51.290;7.348;2023-08-07T02:31:39;26.43;;;14.37;;
76155;SDS011;64906;51.290;7.348;2023-08-07T02:34:04;27.33;;;14.90;;
76155;SDS011;64906;51.290;7.348;2023-08-07T02:36:29;27.20;;;14.17;;
76155;SDS011;64906;51.290;7.348;2023-08-07T02:38:55;23.42;;;13.50;;
76155;SDS011;64906;51.290;7.348;2023-08-07T02:41:20;25.93;;;14.50;;
76155;SDS011;64906;51.290;7.348;2023-08-07T02:43:46;25.02;;;13.57;;
76155;SDS011;64906;51.290;7.348;2023-08-07T02:46:11;23.98;;;13.40;;
76155;SDS011;64906;51.290;7.348;2023-08-07T02:48:36;26.17;;;13.67;;
76155;SDS011;64906;51.290;7.348;2023-08-07T02:51:02;25.70;;;13.70;;
76155;SDS011;64906;51.290;7.348;2023-08-07T02:53:27;24.85;;;13.35;;
76155;SDS011;64906;51.290;7.348;2023-08-07T02:55:53;22.10;;;12.38;;
76155;SDS011;64906;51.290;7.348;2023-08-07T02:58:18;22.80;;;12.75;;
76155;SDS011;64906;51.290;7.348;2023-08-07T03:00:43;22.97;;;12.57;;
76155;SDS011;64906;51.290;7.348;2023-08-07T03:03:09;21.93;;;12.57;;
76155;SDS011;64906;51.290;7.348;2023-08-07T03:05:34;23.87;;;12.40;;
76155;SDS011;64906;51.290;7.348;2023-08-07T03:07:59;24.50;;;12.37;;
76155;SDS011;64906;51.290;7.348;2023-08-07T03:10:25;23.20;;;12.73;;
76155;SDS011;64906;51.290;7.348;2023-08-07T03:12:50;22.40;;;12.27;;
76155;SDS011;64906;51.290;7.348;2023-08-07T03:15:15;21.60;;;12.20;;
76155;SDS011;64906;51.290;7.348;2023-08-07T03:17:40;21.30;;;11.90;;
76155;SDS011;64906;51.290;7.348;2023-08-07T03:20:06;22.43;;;12.23;;
76155;SDS011;64906;51.290;7.348;2023-08-07T03:22:31;21.75;;;11.65;;
76155;SDS011;64906;51.290;7.348;2023-08-07T03:24:57;20.08;;;11.90;;
76155;SDS011;64906;51.290;7.348;2023-08-07T03:27:22;21.45;;;11.10;;
76155;SDS011;64906;51.290;7.348;2023-08-07T03:29:47;22.20;;;11.87;;
76155;SDS011;64906;51.290;7.348;2023-08-07T03:32:13;20.57;;;11.37;;
76155;SDS011;64906;51.290;7.348;2023-08-07T03:34:38;20.03;;;11.00;;
76155;SDS011;64906;51.290;7.348;2023-08-07T03:37:03;21.10;;;11.33;;
76155;SDS011;64906;51.290;7.348;2023-08-07T03:39:29;19.23;;;10.70;;
76155;SDS011;64906;51.290;7.348;2023-08-07T03:41:54;19.80;;;10.73;;
76155;SDS011;64906;51.290;7.348;2023-08-07T03:44:19;19.90;;;10.73;;
76155;SDS011;64906;51.290;7.348;2023-08-07T03:46:45;18.95;;;10.45;;
76155;SDS011;64906;51.290;7.348;2023-08-07T03:49:10;17.35;;;10.52;;
76155;SDS011;64906;51.290;7.348;2023-08-07T03:51:35;19.15;;;10.35;;
76155;SDS011;64906;51.290;7.348;2023-08-07T03:54:01;18.88;;;10.20;;
76155;SDS011;64906;51.290;7.348;2023-08-07T03:56:26;18.47;;;10.17;;
76155;SDS011;64906;51.290;7.348;2023-08-07T03:58:52;19.73;;;11.17;;
76155;SDS011;64906;51.290;7.348;2023-08-07T04:01:18;18.40;;;10.35;;
76155;SDS011;64906;51.290;7.348;2023-08-07T04:03:44;18.05;;;9.98;;
76155;SDS011;64906;51.290;7.348;2023-08-07T04:06:11;17.48;;;9.80;;
76155;SDS011;64906;51.290;7.348;2023-08-07T04:08:40;18.77;;;9.93;;
76155;SDS011;64906;51.290;7.348;2023-08-07T04:11:07;17.50;;;9.70;;
76155;SDS011;64906;51.290;7.348;2023-08-07T04:13:32;16.45;;;9.10;;
76155;SDS011;64906;51.290;7.348;2023-08-07T04:15:58;15.95;;;8.95;;
76155;SDS011;64906;51.290;7.348;2023-08-07T04:18:25;18.20;;;9.63;;
76155;SDS011;64906;51.290;7.348;2023-08-07T04:20:54;16.17;;;9.63;;
76155;SDS011;64906;51.290;7.348;2023-08-07T04:23:20;14.27;;;8.52;;
76155;SDS011;64906;51.290;7.348;2023-08-07T04:25:50;16.10;;;9.00;;
76155;SDS011;64906;51.290;7.348;2023-08-07T04:28:16;15.45;;;8.63;;
76155;SDS011;64906;51.290;7.348;2023-08-07T04:30:42;17.15;;;8.50;;
76155;SDS011;64906;51.290;7.348;2023-08-07T04:33:08;15.50;;;8.45;;
76155;SDS011;64906;51.290;7.348;2023-08-07T04:35:34;14.83;;;7.90;;
76155;SDS011;64906;51.290;7.348;2023-08-07T04:37:59;16.02;;;8.65;;
76155;SDS011;64906;51.290;7.348;2023-08-07T04:40:26;15.07;;;8.30;;
76155;SDS011;64906;51.290;7.348;2023-08-07T04:42:51;15.93;;;8.47;;
76155;SDS011;64906;51.290;7.348;2023-08-07T04:45:16;15.00;;;8.23;;
76155;SDS011;64906;51.290;7.348;2023-08-07T04:47:42;16.13;;;8.20;;
76155;SDS011;64906;51.290;7.348;2023-08-07T04:50:07;14.80;;;7.37;;
76155;SDS011;64906;51.290;7.348;2023-08-07T04:52:33;13.55;;;7.47;;
76155;SDS011;64906;51.290;7.348;2023-08-07T04:54:59;14.30;;;7.68;;
76155;SDS011;64906;51.290;7.348;2023-08-07T04:57:24;15.07;;;8.27;;
76155;SDS011;64906;51.290;7.348;2023-08-07T04:59:50;15.68;;;7.80;;
76155;SDS011;64906;51.290;7.348;2023-08-07T05:02:16;13.00;;;7.55;;
76155;SDS011;64906;51.290;7.348;2023-08-07T05:04:42;13.97;;;7.63;;
76155;SDS011;64906;51.290;7.348;2023-08-07T05:07:08;13.90;;;7.35;;
76155;SDS011;64906;51.290;7.348;2023-08-07T05:09:33;14.15;;;8.20;;
76155;SDS011;64906;51.290;7.348;2023-08-07T05:11:58;14.10;;;7.70;;
76155;SDS011;64906;51.290;7.348;2023-08-07T05:14:23;13.97;;;7.43;;
76155;SDS011;64906;51.290;7.348;2023-08-07T05:16:49;13.10;;;6.90;;
76155;SDS011;64906;51.290;7.348;2023-08-07T05:19:14;14.93;;;7.43;;
76155;SDS011;64906;51.290;7.348;2023-08-07T05:21:39;13.77;;;7.22;;
76155;SDS011;64906;51.290;7.348;2023-08-07T05:24:05;13.70;;;7.47;;
76155;SDS011;64906;51.290;7.348;2023-08-07T05:26:30;12.77;;;7.57;;
76155;SDS011;64906;51.290;7.348;2023-08-07T05:28:56;13.02;;;7.35;;
76155;SDS011;64906;51.290;7.348;2023-08-07T05:31:24;12.85;;;7.25;;
76155;SDS011;64906;51.290;7.348;2023-08-07T05:33:50;12.38;;;6.93;;
76155;SDS011;64906;51.290;7.348;2023-08-07T05:36:15;12.57;;;7.13;;
76155;SDS011;64906;51.290;7.348;2023-08-07T05:38:41;11.52;;;6.70;;
76155;SDS011;64906;51.290;7.348;2023-08-07T05:41:08;13.93;;;7.30;;
76155;SDS011;64906;51.290;7.348;2023-08-07T05:43:34;13.50;;;7.15;;
76155;SDS011;64906;51.290;7.348;2023-08-07T05:45:59;12.53;;;7.10;;
76155;SDS011;64906;51.290;7.348;2023-08-07T05:48:24;12.27;;;6.50;;
76155;SDS011;64906;51.290;7.348;2023-08-07T05:50:51;11.07;;;6.32;;
76155;SDS011;64906;51.290;7.348;2023-08-07T05:53:17;12.63;;;6.53;;
76155;SDS011;64906;51.290;7.348;2023-08-07T05:55:42;11.70;;;6.53;;
76155;SDS011;64906;51.290;7.348;2023-08-07T05:58:07;12.23;;;6.83;;
76155;SDS011;64906;51.290;7.348;2023-08-07T06:00:33;13.48;;;6.97;;
76155;SDS011;64906;51.290;7.348;2023-08-07T06:02:58;12.10;;;6.43;;
76155;SDS011;64906;51.290;7.348;2023-08-07T06:05:24;12.88;;;6.18;;
76155;SDS011;64906;51.290;7.348;2023-08-07T06:07:49;12.02;;;6.68;;
76155;SDS011;64906;51.290;7.348;2023-08-07T06:10:14;11.15;;;6.32;;
76155;SDS011;64906;51.290;7.348;2023-08-07T06:12:40;11.70;;;5.97;;
76155;SDS011;64906;51.290;7.348;2023-08-07T06:15:05;11.23;;;6.00;;
76155;SDS011;64906;51.290;7.348;2023-08-07T06:17:31;10.52;;;6.00;;
76155;SDS011;64906;51.290;7.348;2023-08-07T06:19:56;12.38;;;6.32;;
76155;SDS011;64906;51.290;7.348;2023-08-07T06:22:22;11.13;;;5.30;;
76155;SDS011;64906;51.290;7.348;2023-08-07T06:24:47;10.70;;;5.47;;
76155;SDS011;64906;51.290;7.348;2023-08-07T06:27:14;9.82;;;5.20;;
76155;SDS011;64906;51.290;7.348;2023-08-07T06:29:39;11.05;;;5.22;;
76155;SDS011;64906;51.290;7.348;2023-08-07T06:32:05;11.57;;;5.57;;
76155;SDS011;64906;51.290;7.348;2023-08-07T06:34:31;11.13;;;6.00;;
76155;SDS011;64906;51.290;7.348;2023-08-07T06:36:56;12.80;;;5.87;;
76155;SDS011;64906;51.290;7.348;2023-08-07T06:39:21;11.18;;;5.80;;
76155;SDS011;64906;51.290;7.348;2023-08-07T06:41:47;10.10;;;5.40;;
76155;SDS011;64906;51.290;7.348;2023-08-07T06:44:12;10.38;;;5.80;;
76155;SDS011;64906;51.290;7.348;2023-08-07T06:46:37;18.53;;;6.00;;
76155;SDS011;64906;51.290;7.348;2023-08-07T06:49:02;10.70;;;5.10;;
76155;SDS011;64906;51.290;7.348;2023-08-07T06:51:28;9.60;;;5.15;;
76155;SDS011;64906;51.290;7.348;2023-08-07T06:53:53;11.20;;;5.83;;
76155;SDS011;64906;51.290;7.348;2023-08-07T06:56:18;12.77;;;5.63;;
76155;SDS011;64906;51.290;7.348;2023-08-07T06:58:44;10.33;;;5.27;;
76155;SDS011;64906;51.290;7.348;2023-08-07T07:01:09;12.17;;;5.67;;
76155;SDS011;64906;51.290;7.348;2023-08-07T07:03:35;10.43;;;4.73;;
76155;SDS011;64906;51.290;7.348;2023-08-07T07:06:00;9.63;;;5.18;;
76155;SDS011;64906;51.290;7.348;2023-08-07T07:08:25;9.90;;;5.40;;
76155;SDS011;64906;51.290;7.348;2023-08-07T07:10:50;10.13;;;5.57;;
76155;SDS011;64906;51.290;7.348;2023-08-07T07:13:16;8.87;;;4.67;;
76155;SDS011;64906;51.290;7.348;2023-08-07T07:15:41;10.40;;;5.33;;
76155;SDS011;64906;51.290;7.348;2023-08-07T07:18:06;9.70;;;5.27;;
76155;SDS011;64906;51.290;7.348;2023-08-07T07:20:32;10.90;;;5.27;;
76155;SDS011;64906;51.290;7.348;2023-08-07T07:22:58;9.10;;;5.15;;
76155;SDS011;64906;51.290;7.348;2023-08-07T07:25:23;10.40;;;5.43;;
76155;SDS011;64906;51.290;7.348;2023-08-07T07:27:49;11.27;;;5.65;;
76155;SDS011;64906;51.290;7.348;2023-08-07T07:30:14;9.63;;;4.90;;
76155;SDS011;64906;51.290;7.348;2023-08-07T07:32:39;11.13;;;5.90;;
76155;SDS011;64906;51.290;7.348;2023-08-07T07:35:05;11.20;;;5.47;;
76155;SDS011;64906;51.290;7.348;2023-08-07T07:37:30;10.60;;;4.93;;
76155;SDS011;64906;51.290;7.348;2023-08-07T07:39:56;11.65;;;4.90;;
76155;SDS011;64906;51.290;7.348;2023-08-07T07:42:22;10.68;;;5.05;;
76155;SDS011;64906;51.290;7.348;2023-08-07T07:44:47;9.63;;;4.67;;
76155;SDS011;64906;51.290;7.348;2023-08-07T07:47:12;10.20;;;5.13;;
76155;SDS011;64906;51.290;7.348;2023-08-07T07:49:38;9.38;;;4.47;;
76155;SDS011;64906;51.290;7.348;2023-08-07T07:52:03;9.37;;;4.80;;
76155;SDS011;64906;51.290;7.348;2023-08-07T07:54:29;9.65;;;4.68;;
76155;SDS011;64906;51.290;7.348;2023-08-07T07:56:55;9.90;;;4.97;;
76155;SDS011;64906;51.290;7.348;2023-08-07T07:59:20;8.25;;;4.47;;
76155;SDS011;64906;51.290;7.348;2023-08-07T08:01:45;10.57;;;4.00;;
76155;SDS011;64906;51.290;7.348;2023-08-07T08:04:11;8.85;;;4.60;;
76155;SDS011;64906;51.290;7.348;2023-08-07T08:06:36;9.35;;;4.30;;
76155;SDS011;64906;51.290;7.348;2023-08-07T08:09:02;9.95;;;4.45;;
76155;SDS011;64906;51.290;7.348;2023-08-07T08:11:29;7.95;;;3.80;;
76155;SDS011;64906;51.290;7.348;2023-08-07T08:13:55;7.43;;;3.80;;
76155;SDS011;64906;51.290;7.348;2023-08-07T08:16:20;8.10;;;4.30;;
76155;SDS011;64906;51.290;7.348;2023-08-07T08:18:45;8.20;;;4.20;;
76155;SDS011;64906;51.290;7.348;2023-08-07T08:21:11;7.60;;;3.77;;
76155;SDS011;64906;51.290;7.348;2023-08-07T08:23:36;7.38;;;3.60;;
76155;SDS011;64906;51.290;7.348;2023-08-07T08:26:01;8.95;;;3.88;;
76155;SDS011;64906;51.290;7.348;2023-08-07T08:28:27;6.97;;;3.63;;
76155;SDS011;64906;51.290;7.348;2023-08-07T08:30:52;9.48;;;3.95;;
76155;SDS011;64906;51.290;7.348;2023-08-07T08:33:17;8.33;;;3.50;;
76155;SDS011;64906;51.290;7.348;2023-08-07T08:35:43;9.00;;;4.20;;
76155;SDS011;64906;51.290;7.348;2023-08-07T08:38:08;7.43;;;3.75;;
76155;SDS011;64906;51.290;7.348;2023-08-07T08:40:34;8.50;;;3.80;;
76155;SDS011;64906;51.290;7.348;2023-08-07T08:43:02;6.63;;;3.20;;
76155;SDS011;64906;51.290;7.348;2023-08-07T08:45:30;10.63;;;5.68;;
76155;SDS011;64906;51.290;7.348;2023-08-07T08:48:01;11.80;;;5.85;;
76155;SDS011;64906;51.290;7.348;2023-08-07T08:50:28;17.80;;;9.48;;
76155;SDS011;64906;51.290;7.348;2023-08-07T08:52:55;21.17;;;11.45;;
76155;SDS011;64906;51.290;7.348;2023-08-07T08:55:21;24.30;;;14.05;;
76155;SDS011;64906;51.290;7.348;2023-08-07T08:57:47;28.15;;;15.85;;
76155;SDS011;64906;51.290;7.348;2023-08-07T09:00:13;29.67;;;16.75;;
76155;SDS011;64906;51.290;7.348;2023-08-07T09:02:43;32.10;;;18.65;;
76155;SDS011;64906;51.290;7.348;2023-08-07T09:05:09;32.38;;;18.77;;
76155;SDS011;64906;51.290;7.348;2023-08-07T09:07:35;37.25;;;21.13;;
76155;SDS011;64906;51.290;7.348;2023-08-07T09:10:01;36.97;;;20.90;;
76155;SDS011;64906;51.290;7.348;2023-08-07T09:12:29;38.70;;;22.10;;
76155;SDS011;64906;51.290;7.348;2023-08-07T09:14:57;41.67;;;22.63;;
76155;SDS011;64906;51.290;7.348;2023-08-07T09:17:29;42.33;;;23.73;;
76155;SDS011;64906;51.290;7.348;2023-08-07T09:19:58;40.80;;;23.35;;
76155;SDS011;64906;51.290;7.348;2023-08-07T09:22:24;46.40;;;25.88;;
76155;SDS011;64906;51.290;7.348;2023-08-07T09:24:49;50.95;;;29.13;;
76155;SDS011;64906;51.290;7.348;2023-08-07T09:27:15;57.00;;;33.03;;
76155;SDS011;64906;51.290;7.348;2023-08-07T09:29:40;61.15;;;35.80;;
76155;SDS011;64906;51.290;7.348;2023-08-07T09:32:07;70.78;;;42.70;;
76155;SDS011;64906;51.290;7.348;2023-08-07T09:34:33;69.68;;;40.78;;
76155;SDS011;64906;51.290;7.348;2023-08-07T09:36:58;75.75;;;42.95;;
76155;SDS011;64906;51.290;7.348;2023-08-07T09:39:24;70.20;;;43.20;;
76155;SDS011;64906;51.290;7.348;2023-08-07T09:41:53;79.80;;;47.10;;
76155;SDS011;64906;51.290;7.348;2023-08-07T09:44:18;81.07;;;48.97;;
76155;SDS011;64906;51.290;7.348;2023-08-07T09:46:44;81.80;;;48.78;;
76155;SDS011;64906;51.290;7.348;2023-08-07T09:49:10;84.95;;;48.75;;
76155;SDS011;64906;51.290;7.348;2023-08-07T09:51:42;94.65;;;55.38;;
76155;SDS011;64906;51.290;7.348;2023-08-07T09:54:09;89.32;;;53.15;;
76155;SDS011;64906;51.290;7.348;2023-08-07T09:56:35;82.70;;;49.83;;
76155;SDS011;64906;51.290;7.348;2023-08-07T09:59:01;92.40;;;50.90;;
76155;SDS011;64906;51.290;7.348;2023-08-07T10:01:26;74.85;;;44.22;;
76155;SDS011;64906;51.290;7.348;2023-08-07T10:03:52;77.90;;;44.65;;
76155;SDS011;64906;51.290;7.348;2023-08-07T10:06:18;69.82;;;41.97;;
76155;SDS011;64906;51.290;7.348;2023-08-07T10:08:44;63.17;;;36.58;;
76155;SDS011;64906;51.290;7.348;2023-08-07T10:11:10;61.35;;;37.38;;
76155;SDS011;64906;51.290;7.348;2023-08-07T10:13:37;61.10;;;34.95;;
76155;SDS011;64906;51.290;7.348;2023-08-07T10:16:03;56.60;;;32.35;;
76155;SDS011;64906;51.290;7.348;2023-08-07T10:18:29;50.05;;;29.58;;
76155;SDS011;64906;51.290;7.348;2023-08-07T10:20:54;50.30;;;28.23;;
76155;SDS011;64906;51.290;7.348;2023-08-07T10:23:22;46.65;;;25.67;;
76155;SDS011;64906;51.290;7.348;2023-08-07T10:25:48;42.10;;;23.90;;
76155;SDS011;64906;51.290;7.348;2023-08-07T10:28:16;40.50;;;22.50;;
76155;SDS011;64906;51.290;7.348;2023-08-07T10:30:44;38.30;;;21.13;;
76155;SDS011;64906;51.290;7.348;2023-08-07T10:33:10;35.03;;;20.42;;
76155;SDS011;64906;51.290;7.348;2023-08-07T10:35:37;33.95;;;18.95;;
76155;SDS011;64906;51.290;7.348;2023-08-07T10:38:10;28.55;;;16.40;;
76155;SDS011;64906;51.290;7.348;2023-08-07T10:43:38;28.33;;;14.20;;
76155;SDS011;64906;51.290;7.348;2023-08-07T10:46:06;28.25;;;14.95;;
76155;SDS011;64906;51.290;7.348;2023-08-07T10:48:38;22.80;;;12.73;;
76155;SDS011;64906;51.290;7.348;2023-08-07T10:51:07;23.67;;;12.50;;
76155;SDS011;64906;51.290;7.348;2023-08-07T10:53:34;20.20;;;9.70;;
76155;SDS011;64906;51.290;7.348;2023-08-07T10:56:01;21.95;;;10.75;;
76155;SDS011;64906;51.290;7.348;2023-08-07T10:58:34;21.73;;;10.55;;
76155;SDS011;64906;51.290;7.348;2023-08-07T11:06:23;86.03;;;52.88;;
76155;SDS011;64906;51.290;7.348;2023-08-07T11:08:51;97.15;;;60.70;;
76155;SDS011;64906;51.290;7.348;2023-08-07T11:11:17;133.23;;;78.53;;
76155;SDS011;64906;51.290;7.348;2023-08-07T11:13:42;143.30;;;88.07;;
76155;SDS011;64906;51.290;7.348;2023-08-07T11:16:07;138.30;;;85.97;;
76155;SDS011;64906;51.290;7.348;2023-08-07T11:18:33;147.93;;;90.22;;
76155;SDS011;64906;51.290;7.348;2023-08-07T11:21:00;155.05;;;96.07;;
76155;SDS011;64906;51.290;7.348;2023-08-07T11:23:27;162.05;;;98.15;;
76155;SDS011;64906;51.290;7.348;2023-08-07T11:25:53;146.27;;;90.43;;
76155;SDS011;64906;51.290;7.348;2023-08-07T11:28:20;147.85;;;89.47;;
76155;SDS011;64906;51.290;7.348;2023-08-07T11:30:50;148.70;;;88.22;;
76155;SDS011;64906;51.290;7.348;2023-08-07T11:33:19;131.25;;;82.68;;
76155;SDS011;64906;51.290;7.348;2023-08-07T11:35:45;136.70;;;82.45;;
76155;SDS011;64906;51.290;7.348;2023-08-07T11:38:11;119.90;;;77.00;;
76155;SDS011;64906;51.290;7.348;2023-08-07T11:40:37;110.30;;;66.57;;
76155;SDS011;64906;51.290;7.348;2023-08-07T11:43:02;106.20;;;63.20;;
76155;SDS011;64906;51.290;7.348;2023-08-07T11:45:28;106.82;;;64.47;;
76155;SDS011;64906;51.290;7.348;2023-08-07T11:47:54;105.95;;;66.82;;
76155;SDS011;64906;51.290;7.348;2023-08-07T11:50:22;108.60;;;66.60;;
76155;SDS011;64906;51.290;7.348;2023-08-07T11:52:47;112.95;;;65.63;;
76155;SDS011;64906;51.290;7.348;2023-08-07T11:55:14;107.70;;;63.35;;
76155;SDS011;64906;51.290;7.348;2023-08-07T11:57:39;111.55;;;62.28;;
76155;SDS011;64906;51.290;7.348;2023-08-07T12:00:08;105.47;;;61.70;;
76155;SDS011;64906;51.290;7.348;2023-08-07T12:02:43;99.47;;;59.58;;
76155;SDS011;64906;51.290;7.348;2023-08-07T12:05:09;99.78;;;58.35;;
76155;SDS011;64906;51.290;7.348;2023-08-07T12:07:36;94.85;;;55.80;;
76155;SDS011;64906;51.290;7.348;2023-08-07T12:10:03;90.93;;;54.47;;
76155;SDS011;64906;51.290;7.348;2023-08-07T12:12:37;85.13;;;50.65;;
76155;SDS011;64906;51.290;7.348;2023-08-07T12:15:06;85.28;;;52.30;;
76155;SDS011;64906;51.290;7.348;2023-08-07T12:17:32;81.65;;;48.78;;
76155;SDS011;64906;51.290;7.348;2023-08-07T12:19:58;78.85;;;46.67;;
76155;SDS011;64906;51.290;7.348;2023-08-07T12:22:23;68.75;;;41.70;;
76155;SDS011;64906;51.290;7.348;2023-08-07T12:24:52;67.45;;;39.75;;
76155;SDS011;64906;51.290;7.348;2023-08-07T12:27:18;67.10;;;41.20;;
76155;SDS011;64906;51.290;7.348;2023-08-07T12:29:44;61.88;;;37.97;;
76155;SDS011;64906;51.290;7.348;2023-08-07T12:32:10;66.00;;;37.63;;
76155;SDS011;64906;51.290;7.348;2023-08-07T12:34:35;62.20;;;36.43;;
76155;SDS011;64906;51.290;7.348;2023-08-07T12:37:01;58.10;;;35.25;;
76155;SDS011;64906;51.290;7.348;2023-08-07T12:39:26;62.60;;;35.47;;
76155;SDS011;64906;51.290;7.348;2023-08-07T12:41:51;57.93;;;35.67;;
76155;SDS011;64906;51.290;7.348;2023-08-07T12:44:17;58.63;;;34.83;;
76155;SDS011;64906;51.290;7.348;2023-08-07T12:46:42;57.87;;;34.87;;
76155;SDS011;64906;51.290;7.348;2023-08-07T12:49:10;59.10;;;35.30;;
76155;SDS011;64906;51.290;7.348;2023-08-07T12:51:35;55.83;;;33.95;;
76155;SDS011;64906;51.290;7.348;2023-08-07T12:54:01;55.60;;;33.63;;
76155;SDS011;64906;51.290;7.348;2023-08-07T12:56:26;55.37;;;32.37;;
76155;SDS011;64906;51.290;7.348;2023-08-07T12:58:51;57.10;;;34.07;;
76155;SDS011;64906;51.290;7.348;2023-08-07T13:01:16;55.10;;;33.63;;
76155;SDS011;64906;51.290;7.348;2023-08-07T13:03:42;54.00;;;32.53;;
76155;SDS011;64906;51.290;7.348;2023-08-07T13:06:07;53.33;;;31.80;;
76155;SDS011;64906;51.290;7.348;2023-08-07T13:08:34;49.50;;;30.48;;
76155;SDS011;64906;51.290;7.348;2023-08-07T13:11:00;54.58;;;31.00;;
76155;SDS011;64906;51.290;7.348;2023-08-07T13:13:26;46.17;;;28.33;;
76155;SDS011;64906;51.290;7.348;2023-08-07T13:15:53;50.63;;;29.00;;
76155;SDS011;64906;51.290;7.348;2023-08-07T13:18:18;48.90;;;30.08;;
76155;SDS011;64906;51.290;7.348;2023-08-07T13:20:44;46.67;;;29.55;;
76155;SDS011;64906;51.290;7.348;2023-08-07T13:23:10;47.70;;;28.08;;
76155;SDS011;64906;51.290;7.348;2023-08-07T13:25:36;42.63;;;26.73;;
76155;SDS011;64906;51.290;7.348;2023-08-07T13:28:02;45.78;;;28.13;;
76155;SDS011;64906;51.290;7.348;2023-08-07T13:30:31;44.00;;;26.27;;
76155;SDS011;64906;51.290;7.348;2023-08-07T13:33:00;41.83;;;25.73;;
76155;SDS011;64906;51.290;7.348;2023-08-07T13:35:25;43.33;;;26.40;;
76155;SDS011;64906;51.290;7.348;2023-08-07T13:37:51;39.35;;;24.75;;
76155;SDS011;64906;51.290;7.348;2023-08-07T13:40:16;42.67;;;26.58;;
76155;SDS011;64906;51.290;7.348;2023-08-07T13:42:43;39.30;;;23.52;;
76155;SDS011;64906;51.290;7.348;2023-08-07T13:45:09;38.60;;;23.27;;
76155;SDS011;64906;51.290;7.348;2023-08-07T13:47:35;40.83;;;23.73;;
76155;SDS011;64906;51.290;7.348;2023-08-07T13:50:01;30.40;;;18.30;;
76155;SDS011;64906;51.290;7.348;2023-08-07T13:52:27;36.08;;;20.00;;
76155;SDS011;64906;51.290;7.348;2023-08-07T13:54:52;31.58;;;18.95;;
76155;SDS011;64906;51.290;7.348;2023-08-07T13:57:18;31.20;;;18.13;;
76155;SDS011;64906;51.290;7.348;2023-08-07T13:59:43;33.65;;;19.90;;
76155;SDS011;64906;51.290;7.348;2023-08-07T14:02:08;38.50;;;24.30;;
76155;SDS011;64906;51.290;7.348;2023-08-07T14:04:34;49.13;;;31.15;;
76155;SDS011;64906;51.290;7.348;2023-08-07T14:06:59;63.15;;;40.65;;
76155;SDS011;64906;51.290;7.348;2023-08-07T14:09:25;61.07;;;38.43;;
76155;SDS011;64906;51.290;7.348;2023-08-07T14:11:50;62.65;;;40.35;;
76155;SDS011;64906;51.290;7.348;2023-08-07T14:14:16;60.90;;;40.83;;
76155;SDS011;64906;51.290;7.348;2023-08-07T14:16:41;63.83;;;41.00;;
76155;SDS011;64906;51.290;7.348;2023-08-07T14:19:07;66.85;;;43.78;;
76155;SDS011;64906;51.290;7.348;2023-08-07T14:21:33;63.43;;;42.17;;
76155;SDS011;64906;51.290;7.348;2023-08-07T14:23:58;66.05;;;42.42;;
76155;SDS011;64906;51.290;7.348;2023-08-07T14:26:24;63.42;;;39.97;;
76155;SDS011;64906;51.290;7.348;2023-08-07T14:28:49;64.78;;;42.85;;
76155;SDS011;64906;51.290;7.348;2023-08-07T14:31:14;74.25;;;50.45;;
76155;SDS011;64906;51.290;7.348;2023-08-07T14:33:40;89.87;;;59.90;;